Time;durP1;ratioP1;P1;durP2;ratioP2;P2;SDS_P1;SDS_P2;PMS_P1;PMS_P2;Temp;Humidity;BMP_temperature;BMP_pressure;BME280_temperature;BME280_humidity;BME280_pressure;Samples;Min_cycle;Max_cycle;Signal;HPM_P1;HPM_P2
2021/12/23 00:01:16;;;;;;;96.40;40.00;;;;;;;-6.13;81.69;99290.30;103305;1322;137687;-82
2021/12/23 00:03:43;;;;;;;98.80;38.60;;;;;;;-6.11;81.89;99287.45;103736;1323;24384;-83
2021/12/23 00:06:09;;;;;;;91.00;39.90;;;;;;;-6.08;81.88;99284.09;103601;1319;22615;-82
2021/12/23 00:08:35;;;;;;;88.20;39.90;;;;;;;-6.05;81.67;99276.27;103353;1326;139240;-83
2021/12/23 00:11:02;;;;;;;88.40;35.80;;;;;;;-6.01;81.66;99279.66;103668;1320;23939;-82
2021/12/23 00:13:28;;;;;;;87.20;37.10;;;;;;;-5.97;81.74;99275.39;103393;1325;137534;-82
2021/12/23 00:18:48;;;;;;;93.80;39.40;;;;;;;-5.92;81.62;99276.73;103586;1325;22727;-82
2021/12/23 00:23:59;;;;;;;179.40;60.70;;;;;;;-5.99;80.74;99271.15;103677;1316;25497;-82
2021/12/23 00:26:26;;;;;;;193.20;66.50;;;;;;;-6.08;80.18;99270.83;103182;1325;137988;-82
2021/12/23 00:28:53;;;;;;;205.90;71.60;;;;;;;-6.21;79.94;99265.46;103650;1322;22645;-83
2021/12/23 00:31:19;;;;;;;201.00;69.20;;;;;;;-6.35;79.94;99256.95;103244;1325;138112;-83
2021/12/23 00:33:46;;;;;;;176.00;64.50;;;;;;;-6.41;80.56;99254.11;103657;1319;22760;-83
2021/12/23 00:36:13;;;;;;;168.90;64.90;;;;;;;-6.42;81.04;99253.27;103504;1322;25312;-82
2021/12/23 00:38:49;;;;;;;157.50;58.80;;;;;;;-6.42;81.21;99251.14;103112;1325;138889;-82
2021/12/23 00:41:17;;;;;;;136.10;51.70;;;;;;;-6.38;81.28;99254.00;103506;1325;26125;-83
2021/12/23 00:43:43;;;;;;;130.80;51.50;;;;;;;-6.33;81.40;99248.64;103766;1325;137704;-83
2021/12/23 00:46:10;;;;;;;123.10;45.90;;;;;;;-6.28;81.51;99245.85;103506;1322;23147;-82
2021/12/23 00:48:36;;;;;;;120.70;46.60;;;;;;;-6.25;81.76;99246.65;103878;1319;22630;-83
2021/12/23 00:51:05;;;;;;;110.90;44.70;;;;;;;-6.23;81.95;99238.25;103476;1324;137667;-82
2021/12/23 00:53:38;;;;;;;104.90;45.20;;;;;;;-6.24;81.80;99238.48;103327;1322;22665;-82
2021/12/23 00:56:05;;;;;;;97.80;43.20;;;;;;;-6.25;81.78;99235.38;103639;1322;138533;-82
2021/12/23 00:58:34;;;;;;;97.90;42.10;;;;;;;-6.22;81.83;99234.80;103461;1325;31748;-82
2021/12/23 01:01:01;;;;;;;92.50;39.70;;;;;;;-6.18;82.34;99232.17;103415;1325;137469;-81
2021/12/23 01:03:28;;;;;;;96.80;41.00;;;;;;;-6.14;82.37;99237.50;103255;1323;22588;-82
2021/12/23 01:05:56;;;;;;;96.40;40.00;;;;;;;-6.12;81.95;99237.66;103714;1325;25456;-82
2021/12/23 01:08:22;;;;;;;114.90;43.40;;;;;;;-6.14;81.72;99241.94;103464;1319;137468;-82
2021/12/23 01:10:55;;;;;;;144.90;56.00;;;;;;;-6.23;81.09;99235.95;103492;1322;22745;-83
2021/12/23 01:13:26;;;;;;;141.30;52.60;;;;;;;-6.34;81.38;99235.65;103452;1319;138395;-83
2021/12/23 01:18:30;;;;;;;107.70;46.60;;;;;;;-6.42;81.60;99224.80;103562;1325;22741;-83
2021/12/23 01:21:20;;;;;;;101.40;42.00;;;;;;;-6.43;81.59;99219.78;103409;1325;138457;-82
2021/12/23 01:23:52;;;;;;;93.60;38.70;;;;;;;-6.42;82.03;99217.81;103702;1319;22649;-82
2021/12/23 01:26:22;;;;;;;105.40;39.80;;;;;;;-6.42;82.38;99218.63;103294;1326;137605;-82
2021/12/23 01:28:59;;;;;;;94.80;39.50;;;;;;;-6.38;82.73;99221.52;103629;1319;22788;-82
2021/12/23 01:31:29;;;;;;;88.90;38.60;;;;;;;-6.35;82.38;99222.35;103070;1325;137759;-82
2021/12/23 01:33:55;;;;;;;93.10;42.30;;;;;;;-6.35;82.13;99221.09;103326;1324;22588;-83
2021/12/23 01:36:25;;;;;;;91.80;40.60;;;;;;;-6.33;82.57;99223.58;103235;1325;22682;-83
2021/12/23 01:38:52;;;;;;;90.60;39.20;;;;;;;-6.29;82.28;99216.55;103418;1325;137866;-81
2021/12/23 01:41:21;;;;;;;89.70;37.80;;;;;;;-6.24;82.04;99215.63;103492;1322;25411;-81
2021/12/23 01:43:47;;;;;;;83.00;35.30;;;;;;;-6.18;82.22;99213.06;103466;1325;137431;-81
2021/12/23 01:46:15;;;;;;;88.00;37.50;;;;;;;-6.16;82.06;99209.39;103428;1325;22651;-81
2021/12/23 01:48:43;;;;;;;81.80;36.90;;;;;;;-6.16;82.12;99207.83;103420;1325;24276;-81
2021/12/23 01:51:09;;;;;;;98.70;40.70;;;;;;;-6.18;81.87;99202.45;103099;1326;137407;-81
2021/12/23 01:53:36;;;;;;;104.20;39.50;;;;;;;-6.24;81.57;99198.86;103596;1319;24220;-81
2021/12/23 01:56:02;;;;;;;91.00;40.90;;;;;;;-6.30;81.54;99198.27;103619;1325;137710;-81
2021/12/23 01:58:29;;;;;;;92.40;41.50;;;;;;;-6.36;81.27;99198.23;103736;1322;22623;-81
2021/12/23 02:00:55;;;;;;;95.60;41.40;;;;;;;-6.45;81.12;99192.72;103352;1322;138493;-81
2021/12/23 02:03:21;;;;;;;93.50;40.10;;;;;;;-6.46;80.89;99192.98;103601;1321;24284;-81
2021/12/23 02:05:48;;;;;;;90.40;38.60;;;;;;;-6.48;81.30;99185.20;103959;1326;23398;-81
2021/12/23 02:08:14;;;;;;;88.80;38.70;;;;;;;-6.49;81.73;99184.91;103634;1325;137610;-82
2021/12/23 02:10:42;;;;;;;89.20;38.50;;;;;;;-6.49;81.53;99178.56;103752;1323;25219;-81
2021/12/23 02:13:10;;;;;;;80.80;36.40;;;;;;;-6.51;81.38;99176.09;104702;1319;138042;-81
2021/12/23 02:15:36;;;;;;;88.90;37.80;;;;;;;-6.59;81.32;99168.73;104291;1324;22622;-81
2021/12/23 02:18:03;;;;;;;98.20;40.60;;;;;;;-6.66;81.16;99166.96;103571;1320;23382;-81
2021/12/23 02:20:32;;;;;;;91.60;37.30;;;;;;;-6.71;81.00;99161.48;103281;1325;138561;-81
2021/12/23 02:22:59;;;;;;;76.00;36.60;;;;;;;-6.75;80.87;99163.23;103837;1325;26619;-81
2021/12/23 02:25:25;;;;;;;77.90;35.90;;;;;;;-6.78;81.31;99160.66;103686;1326;138103;-81
2021/12/23 02:27:53;;;;;;;87.00;35.90;;;;;;;-6.80;81.90;99155.34;103681;1325;22792;-81
2021/12/23 02:30:23;;;;;;;90.00;38.10;;;;;;;-6.80;81.47;99151.81;103630;1325;30788;-81
2021/12/23 02:32:53;;;;;;;96.40;38.70;;;;;;;-6.80;81.94;99148.23;103897;1321;137631;-81
2021/12/23 02:35:23;;;;;;;84.50;36.60;;;;;;;-6.81;81.63;99144.98;103933;1326;25310;-82
2021/12/23 02:37:50;;;;;;;88.80;40.60;;;;;;;-6.82;82.03;99144.75;103795;1321;137465;-81
2021/12/23 02:40:42;;;;;;;89.40;36.80;;;;;;;-6.84;81.80;99136.23;103716;1325;22667;-81
2021/12/23 02:43:15;;;;;;;90.80;38.10;;;;;;;-6.87;81.61;99132.34;102986;1323;138578;-80
2021/12/23 02:45:44;;;;;;;85.60;38.70;;;;;;;-6.87;81.66;99130.04;103414;1325;22653;-81
2021/12/23 02:48:16;;;;;;;85.00;36.00;;;;;;;-6.87;81.74;99122.14;104099;1320;22589;-81
2021/12/23 02:50:46;;;;;;;87.80;39.00;;;;;;;-6.89;81.68;99117.54;103592;1319;137675;-81
2021/12/23 02:53:13;;;;;;;92.20;40.50;;;;;;;-6.90;81.67;99118.14;103695;1319;24397;-81
2021/12/23 02:55:40;;;;;;;90.60;38.10;;;;;;;-6.94;81.58;99114.04;103507;1318;137831;-81
2021/12/23 02:58:07;;;;;;;101.10;44.60;;;;;;;-6.99;81.53;99115.49;104039;1318;24323;-80
2021/12/23 03:00:34;;;;;;;88.70;41.20;;;;;;;-7.04;81.57;99120.75;103546;1318;23494;-81
2021/12/23 03:03:03;;;;;;;86.70;38.00;;;;;;;-7.05;81.64;99118.56;103540;1320;137821;-81
2021/12/23 03:05:29;;;;;;;91.10;37.90;;;;;;;-7.09;80.97;99112.67;103587;1325;22660;-81
2021/12/23 03:07:56;;;;;;;104.60;39.90;;;;;;;-7.20;80.25;99111.80;103300;1321;137413;-80
2021/12/23 03:10:22;;;;;;;101.00;42.20;;;;;;;-7.35;80.50;99108.86;103628;1319;23456;-81
2021/12/23 03:12:50;;;;;;;94.70;40.60;;;;;;;-7.43;81.05;99110.67;103525;1319;138066;-81
2021/12/23 03:15:17;;;;;;;91.20;38.80;;;;;;;-7.46;80.80;99104.71;103708;1319;22770;-81
2021/12/23 03:17:44;;;;;;;96.60;37.90;;;;;;;-7.50;81.60;99101.64;103584;1321;23328;-81
2021/12/23 03:20:10;;;;;;;98.60;41.70;;;;;;;-7.55;81.39;99097.80;103304;1326;138629;-81
2021/12/23 03:22:37;;;;;;;91.00;40.70;;;;;;;-7.55;82.06;99097.13;103571;1322;25082;-81
2021/12/23 03:25:04;;;;;;;86.90;38.40;;;;;;;-7.54;82.10;99099.80;103458;1319;138314;-81
2021/12/23 03:27:31;;;;;;;89.30;39.20;;;;;;;-7.50;82.60;99095.48;103763;1324;23474;-81
2021/12/23 03:29:57;;;;;;;102.80;38.40;;;;;;;-7.47;82.37;99092.42;103520;1320;22738;-81
2021/12/23 03:32:24;;;;;;;98.50;41.00;;;;;;;-7.44;82.68;99091.14;103708;1324;138133;-81
2021/12/23 03:34:50;;;;;;;100.50;40.10;;;;;;;-7.42;82.58;99089.64;103474;1325;22592;-81
2021/12/23 03:37:16;;;;;;;100.40;40.10;;;;;;;-7.42;82.35;99086.47;103648;1319;137847;-81
2021/12/23 03:39:43;;;;;;;101.30;44.70;;;;;;;-7.43;82.35;99082.63;103404;1323;24511;-81
2021/12/23 03:42:10;;;;;;;96.30;41.30;;;;;;;-7.43;82.76;99083.67;103689;1324;22606;-81
2021/12/23 03:44:36;;;;;;;92.90;39.80;;;;;;;-7.39;82.57;99083.39;103665;1321;137978;-81
2021/12/23 03:47:02;;;;;;;87.80;37.80;;;;;;;-7.34;82.80;99076.85;103603;1321;24319;-81
2021/12/23 03:49:29;;;;;;;99.50;39.70;;;;;;;-7.32;82.27;99070.81;103379;1323;138190;-81
2021/12/23 03:51:55;;;;;;;94.60;40.00;;;;;;;-7.27;82.69;99071.36;103421;1324;22649;-81
2021/12/23 03:54:21;;;;;;;101.60;40.30;;;;;;;-7.27;82.36;99072.06;103554;1319;25559;-81
2021/12/23 03:56:48;;;;;;;99.70;42.70;;;;;;;-7.30;81.77;99065.61;103362;1325;137922;-81
2021/12/23 03:59:14;;;;;;;100.00;41.80;;;;;;;-7.34;81.97;99064.85;103451;1322;24345;-81
2021/12/23 04:01:41;;;;;;;101.10;41.30;;;;;;;-7.39;81.75;99058.48;103588;1319;138135;-81
2021/12/23 04:04:08;;;;;;;97.40;41.70;;;;;;;-7.41;81.97;99059.76;103602;1323;25658;-81
2021/12/23 04:06:34;;;;;;;92.40;41.80;;;;;;;-7.42;81.83;99056.27;103569;1319;22634;-81
2021/12/23 04:09:01;;;;;;;98.30;39.70;;;;;;;-7.39;82.27;99055.91;103469;1323;138389;-81
2021/12/23 04:11:27;;;;;;;98.00;43.20;;;;;;;-7.37;82.36;99053.59;103435;1325;22638;-81
2021/12/23 04:13:54;;;;;;;100.40;39.90;;;;;;;-7.36;82.34;99046.12;103794;1322;137503;-81
2021/12/23 04:16:21;;;;;;;98.60;40.80;;;;;;;-7.34;82.44;99041.88;103895;1321;22640;-81
2021/12/23 04:18:50;;;;;;;100.80;43.30;;;;;;;-7.34;82.36;99041.01;103705;1319;138011;-81
2021/12/23 04:21:17;;;;;;;99.90;41.60;;;;;;;-7.34;82.39;99039.98;103761;1325;23348;-80
2021/12/23 04:23:44;;;;;;;96.10;44.60;;;;;;;-7.35;82.49;99037.96;103421;1323;23350;-81
2021/12/23 04:26:10;;;;;;;94.30;42.80;;;;;;;-7.37;82.23;99036.32;103140;1322;138297;-81
2021/12/23 04:28:45;;;;;;;100.10;42.80;;;;;;;-7.35;82.76;99035.30;103453;1319;22920;-81
2021/12/23 04:31:17;;;;;;;94.50;41.20;;;;;;;-7.34;82.70;99037.86;103714;1319;138911;-81
2021/12/23 04:33:49;;;;;;;108.90;43.00;;;;;;;-7.39;82.18;99033.80;103402;1325;25707;-81
2021/12/23 04:36:16;;;;;;;92.80;38.80;;;;;;;-7.47;81.59;99031.61;103726;1319;22808;-81
2021/12/23 04:38:44;;;;;;;94.50;39.50;;;;;;;-7.57;81.18;99031.33;103372;1324;138051;-81
2021/12/23 04:41:11;;;;;;;108.20;45.40;;;;;;;-7.62;81.60;99027.98;103817;1324;25285;-81
2021/12/23 04:43:38;;;;;;;104.40;43.70;;;;;;;-7.65;82.16;99024.30;103562;1325;137695;-81
2021/12/23 04:46:06;;;;;;;97.40;43.00;;;;;;;-7.69;82.34;99026.87;103295;1322;23057;-81
2021/12/23 04:48:33;;;;;;;94.50;41.40;;;;;;;-7.67;82.68;99027.63;103165;1324;22606;-81
2021/12/23 04:51:00;;;;;;;98.90;40.60;;;;;;;-7.65;82.57;99023.58;103222;1324;138210;-81
2021/12/23 04:53:27;;;;;;;90.70;38.90;;;;;;;-7.61;82.65;99018.91;103667;1318;22606;-81
2021/12/23 04:55:53;;;;;;;96.40;41.20;;;;;;;-7.60;82.05;99017.96;103521;1321;137704;-81
2021/12/23 04:58:19;;;;;;;90.60;37.60;;;;;;;-7.62;81.81;99011.77;103459;1319;25562;-81
2021/12/23 05:00:48;;;;;;;94.70;37.90;;;;;;;-7.62;82.27;99004.57;103305;1324;139150;-81
2021/12/23 05:03:25;;;;;;;95.30;39.30;;;;;;;-7.66;81.84;99000.58;103573;1325;25779;-82
2021/12/23 05:05:52;;;;;;;96.20;42.30;;;;;;;-7.72;82.06;98989.98;103222;1325;22624;-82
2021/12/23 05:08:19;;;;;;;98.50;42.00;;;;;;;-7.75;82.59;98989.80;103345;1320;139287;-82
2021/12/23 05:10:47;;;;;;;91.60;40.70;;;;;;;-7.76;82.51;98977.20;103792;1324;22674;-82
2021/12/23 05:13:14;;;;;;;95.30;40.60;;;;;;;-7.76;82.27;98979.51;103796;1319;138139;-82
2021/12/23 05:15:40;;;;;;;104.00;41.80;;;;;;;-7.75;82.77;98975.04;103693;1325;22696;-82
2021/12/23 05:18:07;;;;;;;98.30;41.70;;;;;;;-7.75;82.64;98972.87;103494;1324;25339;-82
2021/12/23 05:20:33;;;;;;;101.80;42.40;;;;;;;-7.75;82.65;98968.64;103078;1324;137517;-82
2021/12/23 05:23:00;;;;;;;103.70;44.90;;;;;;;-7.74;82.67;98969.88;103318;1324;22689;-82
2021/12/23 05:25:26;;;;;;;99.60;46.20;;;;;;;-7.75;82.83;98968.67;103452;1321;137857;-82
2021/12/23 05:27:54;;;;;;;97.70;43.30;;;;;;;-7.75;82.61;98966.94;103809;1319;22606;-82
2021/12/23 05:30:24;;;;;;;106.50;45.20;;;;;;;-7.75;82.15;98963.57;103452;1321;25483;-82
2021/12/23 05:32:50;;;;;;;106.90;45.30;;;;;;;-7.75;82.47;98965.13;103496;1321;137660;-82
2021/12/23 05:35:18;;;;;;;103.00;41.10;;;;;;;-7.74;82.42;98966.17;103258;1319;235523;-82
2021/12/23 05:37:46;;;;;;;106.80;44.40;;;;;;;-7.76;82.01;98961.55;103240;1324;138030;-82
2021/12/23 05:40:15;;;;;;;103.70;45.10;;;;;;;-7.78;82.19;98960.13;103226;1323;22637;-82
2021/12/23 05:42:42;;;;;;;121.90;45.00;;;;;;;-7.82;82.28;98959.30;104000;1323;22920;-82
2021/12/23 05:45:09;;;;;;;111.90;45.50;;;;;;;-7.85;82.25;98958.13;103508;1324;137625;-82
2021/12/23 05:47:36;;;;;;;96.40;41.40;;;;;;;-7.92;81.60;98958.65;103745;1325;22613;-82
2021/12/23 05:50:03;;;;;;;90.20;40.70;;;;;;;-7.98;81.45;98956.98;103522;1319;138313;-82
2021/12/23 05:52:30;;;;;;;92.20;38.70;;;;;;;-7.98;81.28;98951.73;103756;1323;25322;-82
2021/12/23 05:54:57;;;;;;;94.30;39.30;;;;;;;-7.98;81.56;98953.53;103711;1322;139072;-82
2021/12/23 05:57:29;;;;;;;96.80;42.70;;;;;;;-8.01;81.45;98941.17;103641;1320;24541;-82
2021/12/23 05:59:55;;;;;;;96.70;42.40;;;;;;;-8.01;81.36;98942.91;103525;1318;23021;-82
2021/12/23 06:02:22;;;;;;;118.70;44.70;;;;;;;-8.01;81.36;98939.80;103445;1323;137845;-81
2021/12/23 06:04:48;;;;;;;107.90;43.90;;;;;;;-8.04;81.75;98939.61;103712;1323;22593;-82
2021/12/23 06:07:14;;;;;;;95.40;40.60;;;;;;;-8.05;81.86;98939.05;103396;1319;138250;-83
2021/12/23 06:09:40;;;;;;;103.30;46.00;;;;;;;-8.07;81.72;98939.73;103992;1319;22854;-82
2021/12/23 06:12:07;;;;;;;93.40;43.60;;;;;;;-8.06;82.08;98936.10;103454;1319;23334;-82
2021/12/23 06:14:33;;;;;;;100.30;44.30;;;;;;;-8.03;81.72;98933.56;103357;1322;139032;-82
2021/12/23 06:17:01;;;;;;;95.80;44.70;;;;;;;-7.99;81.98;98933.85;103479;1322;22603;-82
2021/12/23 06:19:27;;;;;;;94.90;44.30;;;;;;;-8.01;81.39;98936.77;103673;1319;138858;-82
2021/12/23 06:21:54;;;;;;;93.10;40.00;;;;;;;-8.03;81.88;98944.48;103579;1326;23445;-82
2021/12/23 06:24:20;;;;;;;85.50;38.70;;;;;;;-7.96;82.71;98940.66;103498;1322;22606;-82
2021/12/23 06:26:46;;;;;;;88.70;41.20;;;;;;;-7.85;82.73;98936.64;103784;1319;138079;-82
2021/12/23 06:29:13;;;;;;;92.30;41.20;;;;;;;-7.71;82.80;98925.20;103764;1318;25542;-82
2021/12/23 06:31:39;;;;;;;104.50;43.70;;;;;;;-7.55;82.94;98926.05;104005;1319;137389;-82
2021/12/23 06:34:05;;;;;;;99.20;43.40;;;;;;;-7.44;82.54;98931.73;103446;1322;22761;-82
2021/12/23 06:36:32;;;;;;;103.70;44.20;;;;;;;-7.38;82.30;98934.99;103564;1320;22676;-82
2021/12/23 06:38:58;;;;;;;91.80;40.80;;;;;;;-7.37;81.88;98930.00;103311;1318;138310;-82
2021/12/23 06:41:24;;;;;;;103.80;42.20;;;;;;;-7.46;81.36;98926.45;104059;1321;22660;-82
2021/12/23 06:43:51;;;;;;;90.40;38.70;;;;;;;-7.59;80.85;98924.64;104094;1324;138403;-82
2021/12/23 06:46:17;;;;;;;104.40;41.40;;;;;;;-7.66;81.49;98921.94;104007;1319;22643;-83
2021/12/23 06:48:43;;;;;;;101.60;44.40;;;;;;;-7.66;81.67;98923.71;103523;1323;22622;-82
2021/12/23 06:51:10;;;;;;;105.00;43.50;;;;;;;-7.63;81.93;98921.07;103779;1320;137687;-81
2021/12/23 06:53:37;;;;;;;114.10;45.50;;;;;;;-7.63;81.96;98921.55;103892;1319;24365;-82
2021/12/23 06:56:04;;;;;;;102.30;46.20;;;;;;;-7.66;81.42;98916.52;103474;1323;137903;-81
2021/12/23 06:58:32;;;;;;;100.60;45.60;;;;;;;-7.67;81.41;98912.53;103967;1317;22578;-81
2021/12/23 07:00:58;;;;;;;103.10;45.00;;;;;;;-7.65;82.03;98916.41;103789;1319;138902;-81
2021/12/23 07:03:33;;;;;;;93.70;41.20;;;;;;;-7.60;81.94;98906.17;103813;1316;22925;-83
2021/12/23 07:06:05;;;;;;;98.20;42.20;;;;;;;-7.53;82.28;98899.33;104246;1320;24097;-76
2021/12/23 07:08:34;;;;;;;102.80;41.20;;;;;;;-7.43;82.02;98897.12;103856;1316;138351;-77
2021/12/23 07:11:01;;;;;;;95.10;43.20;;;;;;;-7.31;82.71;98895.27;104985;1318;26603;-78
2021/12/23 07:13:27;;;;;;;94.80;41.10;;;;;;;-7.19;82.56;98887.07;104674;1316;138029;-77
2021/12/23 07:15:54;;;;;;;88.20;39.50;;;;;;;-7.11;82.32;98887.14;103165;1316;22602;-77
2021/12/23 07:18:20;;;;;;;96.00;38.50;;;;;;;-7.08;80.85;98886.01;103361;1325;24588;-77
2021/12/23 07:20:46;;;;;;;99.10;39.30;;;;;;;-7.10;80.59;98883.73;103303;1322;137408;-75
2021/12/23 07:23:12;;;;;;;96.80;39.50;;;;;;;-7.18;79.77;98877.00;103809;1316;24279;-77
2021/12/23 07:25:39;;;;;;;97.80;41.70;;;;;;;-7.26;79.76;98876.50;103219;1323;139130;-77
2021/12/23 07:28:05;;;;;;;93.90;40.70;;;;;;;-7.25;80.32;98880.34;103771;1316;22770;-78
2021/12/23 07:30:31;;;;;;;104.80;40.70;;;;;;;-7.24;80.42;98875.17;103408;1322;22599;-77
2021/12/23 07:33:00;;;;;;;88.20;40.80;;;;;;;-7.21;80.54;98871.91;103046;1316;137873;-77
2021/12/23 07:35:26;;;;;;;94.00;42.30;;;;;;;-7.17;80.82;98872.30;103509;1319;22600;-79
2021/12/23 07:37:53;;;;;;;101.20;43.70;;;;;;;-7.15;80.40;98874.23;103716;1321;137551;-76
2021/12/23 07:40:20;;;;;;;81.50;34.60;;;;;;;-7.18;80.79;98873.60;103826;1324;24230;-78
2021/12/23 07:45:32;;;;;;;94.00;40.20;;;;;;;-7.33;80.58;98860.16;102961;1322;22580;-78
2021/12/23 07:47:58;;;;;;;109.60;42.50;;;;;;;-7.33;80.41;98855.73;103336;1317;24320;-77
2021/12/23 07:50:26;;;;;;;88.70;40.20;;;;;;;-7.29;80.61;98860.02;103811;1316;138730;-78
2021/12/23 07:52:52;;;;;;;99.00;42.90;;;;;;;-7.29;80.66;98859.83;103477;1319;22794;-77
2021/12/23 07:55:20;;;;;;;87.20;39.30;;;;;;;-7.28;80.06;98862.80;103215;1319;138813;-77
2021/12/23 07:57:48;;;;;;;85.70;38.80;;;;;;;-7.26;80.40;98864.39;104479;1318;25390;-78
2021/12/23 08:00:16;;;;;;;87.00;38.00;;;;;;;-7.18;80.88;98860.88;103652;1319;23383;-78
2021/12/23 08:02:43;;;;;;;85.00;40.40;;;;;;;-7.04;80.97;98856.06;103945;1318;138546;-76
2021/12/23 08:05:10;;;;;;;82.70;36.30;;;;;;;-6.86;81.43;98853.40;104301;1318;22575;-78
2021/12/23 08:07:36;;;;;;;92.50;40.90;;;;;;;-6.64;81.48;98850.90;103235;1319;137620;-77
2021/12/23 08:10:03;;;;;;;96.00;40.10;;;;;;;-6.41;81.77;98844.23;103560;1318;22602;-77
2021/12/23 08:12:29;;;;;;;89.90;38.30;;;;;;;-6.18;81.74;98840.77;103525;1319;25644;-76
2021/12/23 08:14:56;;;;;;;94.20;39.80;;;;;;;-6.01;81.43;98844.58;103275;1325;137550;-77
2021/12/23 08:17:22;;;;;;;95.30;41.40;;;;;;;-5.87;81.19;98843.58;103379;1319;22632;-77
2021/12/23 08:19:48;;;;;;;99.20;40.10;;;;;;;-5.79;80.31;98845.50;103538;1323;137567;-76
2021/12/23 08:22:15;;;;;;;91.40;38.80;;;;;;;-5.78;79.93;98840.47;103332;1319;23151;-76
2021/12/23 08:24:41;;;;;;;91.00;38.50;;;;;;;-5.78;79.50;98838.71;103055;1319;22608;-76
2021/12/23 08:27:08;;;;;;;91.90;38.20;;;;;;;-5.80;79.44;98833.95;103046;1325;137345;-81
2021/12/23 08:29:34;;;;;;;83.10;37.30;;;;;;;-5.78;79.45;98828.53;103775;1318;23332;-81
2021/12/23 08:32:01;;;;;;;79.90;33.40;;;;;;;-5.77;79.17;98829.64;103521;1324;137519;-82
2021/12/23 08:34:28;;;;;;;92.40;38.00;;;;;;;-5.76;79.31;98829.59;103680;1318;22598;-81
2021/12/23 08:36:55;;;;;;;88.50;37.80;;;;;;;-5.72;79.44;98825.83;103502;1319;137785;-82
2021/12/23 08:39:21;;;;;;;93.70;39.40;;;;;;;-5.66;79.65;98819.12;103931;1318;23440;-82
2021/12/23 08:41:49;;;;;;;85.90;37.20;;;;;;;-5.59;79.54;98816.05;103954;1318;24391;-82
2021/12/23 08:44:16;;;;;;;88.20;36.00;;;;;;;-5.52;79.61;98808.59;103153;1322;137849;-82
2021/12/23 08:46:42;;;;;;;84.80;36.00;;;;;;;-5.46;79.70;98806.08;103022;1322;23772;-82
2021/12/23 08:49:08;;;;;;;79.70;39.10;;;;;;;-5.38;79.76;98803.13;103614;1323;137967;-82
2021/12/23 08:51:36;;;;;;;90.30;40.60;;;;;;;-5.31;79.12;98790.77;103197;1319;22881;-81
2021/12/23 08:54:04;;;;;;;83.40;39.60;;;;;;;-5.24;78.80;98792.27;103477;1318;22761;-81
2021/12/23 08:56:30;;;;;;;92.10;39.40;;;;;;;-5.19;78.49;98794.83;103227;1325;137802;-81
2021/12/23 08:58:56;;;;;;;90.30;37.30;;;;;;;-5.12;79.47;98792.83;103490;1321;22777;-81
2021/12/23 09:01:23;;;;;;;88.90;40.80;;;;;;;-4.97;78.94;98789.90;103742;1319;137705;-81
2021/12/23 09:03:49;;;;;;;91.80;40.80;;;;;;;-4.84;79.45;98787.64;103523;1318;22567;-82
2021/12/23 09:06:16;;;;;;;83.70;37.80;;;;;;;-4.67;79.06;98783.11;103598;1318;22574;-81
2021/12/23 09:08:42;;;;;;;95.10;40.70;;;;;;;-4.56;78.40;98778.08;103763;1318;137802;-81
2021/12/23 09:11:08;;;;;;;92.10;41.90;;;;;;;-4.44;78.19;98768.64;103323;1326;25445;-82
2021/12/23 09:13:35;;;;;;;88.60;40.80;;;;;;;-4.32;78.17;98763.95;103328;1325;137488;-81
2021/12/23 09:16:02;;;;;;;93.40;40.10;;;;;;;-4.24;77.34;98761.41;103295;1322;25421;-81
2021/12/23 09:18:29;;;;;;;97.20;42.00;;;;;;;-4.13;77.71;98764.02;103443;1323;22594;-81
2021/12/23 09:20:56;;;;;;;96.60;41.80;;;;;;;-4.00;78.08;98758.53;102852;1321;138125;-82
2021/12/23 09:23:24;;;;;;;82.50;35.90;;;;;;;-3.88;77.27;98754.02;103716;1319;22609;-77
2021/12/23 09:25:52;;;;;;;91.90;44.30;;;;;;;-3.67;79.06;98751.08;103326;1319;137681;-81
2021/12/23 09:34:08;;;;;;;106.90;48.60;;;;;;;-3.16;75.90;98732.84;103378;1319;24283;-81
2021/12/23 09:36:36;;;;;;;102.30;47.10;;;;;;;-3.08;75.42;98723.42;103595;1318;24151;-81
2021/12/23 09:39:06;;;;;;;101.10;47.50;;;;;;;-3.03;75.27;98717.38;103993;1321;137570;-82
2021/12/23 09:41:33;;;;;;;110.00;51.00;;;;;;;-2.96;74.99;98716.55;103326;1319;24162;-82
2021/12/23 09:44:01;;;;;;;111.30;51.60;;;;;;;-2.94;74.41;98713.11;103403;1323;140264;-82
2021/12/23 09:46:28;;;;;;;109.50;49.50;;;;;;;-2.94;74.19;98712.60;103400;1319;24483;-82
2021/12/23 09:48:55;;;;;;;110.50;49.50;;;;;;;-2.91;74.07;98709.80;103239;1318;137959;-82
2021/12/23 09:51:24;;;;;;;111.10;49.40;;;;;;;-2.86;74.52;98706.80;103118;1321;25406;-82
2021/12/23 09:53:56;;;;;;;;;;;;;;;-2.81;73.79;98696.27;103446;1323;22649;-82
2021/12/23 09:56:22;;;;;;;103.60;45.10;;;;;;;-2.81;73.79;98694.30;103601;1319;123882;-82
2021/12/23 09:58:48;;;;;;;100.00;44.10;;;;;;;-2.78;73.98;98695.02;103455;1325;22710;-82
2021/12/23 10:01:15;;;;;;;93.20;42.70;;;;;;;-2.76;73.53;98693.10;103481;1319;137935;-82
2021/12/23 10:03:42;;;;;;;87.00;39.70;;;;;;;-2.74;73.20;98687.33;103241;1321;22574;-82
2021/12/23 10:06:09;;;;;;;88.80;39.90;;;;;;;-2.75;73.17;98679.45;103370;1323;23426;-82
2021/12/23 10:08:38;;;;;;;89.80;44.10;;;;;;;-2.72;73.21;98668.69;103176;1323;138009;-83
2021/12/23 10:29:32;;;;;;;77.10;36.00;;;;;;;-2.32;72.26;98634.41;103342;1324;22668;-82
2021/12/23 10:31:21;;;;;;;82.40;36.10;;;;;;;-2.27;71.79;98623.34;103722;1318;22607;-82
2021/12/23 10:38:54;;;;;;;85.00;38.90;;;;;;;-2.11;71.47;98600.71;103285;1318;138103;-82
2021/12/23 10:41:28;;;;;;;85.10;37.40;;;;;;;-2.04;71.72;98595.73;103770;1319;22715;-82
2021/12/23 10:44:01;;;;;;;71.50;35.00;;;;;;;-1.95;71.73;98594.77;103214;1321;137790;-82
2021/12/23 10:46:35;;;;;;;84.00;37.70;;;;;;;-1.85;71.49;98588.73;103477;1321;22653;-82
2021/12/23 10:52:16;;;;;;;74.60;35.60;;;;;;;-1.73;71.00;98560.63;103347;1324;25434;-82
2021/12/23 11:00:41;;;;;;;61.90;28.90;;;;;;;-1.56;70.33;98536.71;103876;1318;28999;-82
2021/12/23 11:03:16;;;;;;;55.60;26.70;;;;;;;-1.52;70.43;98525.24;103109;1325;137800;-83
2021/12/23 11:11:31;;;;;;;55.60;24.70;;;;;;;-1.37;69.80;98496.16;103627;1318;22669;-82
2021/12/23 11:39:29;;;;;;;52.10;24.80;;;;;;;-0.93;67.95;98445.55;103604;1323;137385;-83
2021/12/23 11:42:05;;;;;;;49.90;23.10;;;;;;;-0.93;67.92;98438.13;103923;1318;23344;-83
2021/12/23 11:44:32;;;;;;;54.00;23.70;;;;;;;-0.90;67.94;98435.95;103696;1324;137728;-83
2021/12/23 11:47:03;;;;;;;51.10;22.60;;;;;;;-0.85;67.55;98432.70;103716;1322;23323;-83
2021/12/23 11:49:29;;;;;;;54.70;24.10;;;;;;;-0.81;67.32;98433.39;104217;1325;137862;-83
2021/12/23 11:51:56;;;;;;;49.50;22.30;;;;;;;-0.76;67.40;98431.55;103994;1323;24313;-83
2021/12/23 11:54:37;;;;;;;48.40;23.70;;;;;;;-0.75;67.59;98420.92;103847;1325;23358;-83
2021/12/23 11:57:15;;;;;;;52.30;24.20;;;;;;;-0.76;67.40;98412.01;103848;1319;137730;-83
2021/12/23 11:59:55;;;;;;;43.90;22.60;;;;;;;-0.75;67.61;98399.54;103791;1319;27699;-82
2021/12/23 12:02:25;;;;;;;51.50;24.40;;;;;;;-0.79;67.42;98387.66;103475;1318;137303;-82
2021/12/23 12:05:00;;;;;;;50.10;23.60;;;;;;;-0.85;67.79;98378.60;103507;1323;26672;-82
2021/12/23 12:07:26;;;;;;;50.10;22.80;;;;;;;-0.85;68.01;98375.21;103645;1318;26601;-82
2021/12/23 12:10:02;;;;;;;47.20;22.40;;;;;;;-0.85;68.20;98373.86;103315;1321;137659;-82
2021/12/23 12:12:30;;;;;;;37.70;18.10;;;;;;;-0.81;68.14;98372.02;103222;1321;22735;-83
2021/12/23 12:14:58;;;;;;;36.30;17.60;;;;;;;-0.82;67.42;98362.16;103260;1321;138074;-83
2021/12/23 12:17:25;;;;;;;41.80;18.00;;;;;;;-0.87;67.42;98365.60;103556;1319;24450;-83
2021/12/23 12:20:10;;;;;;;41.60;19.80;;;;;;;-0.87;67.68;98364.60;103006;1318;138488;-82
2021/12/23 12:23:04;;;;;;;40.30;17.80;;;;;;;-0.88;67.71;98366.45;103563;1325;24223;-83
2021/12/23 12:25:30;;;;;;;35.70;16.60;;;;;;;-0.92;67.34;98354.39;103183;1322;24267;-83
2021/12/23 12:27:56;;;;;;;40.30;18.40;;;;;;;-0.89;67.81;98347.37;103242;1321;137176;-83